Time;durP1;ratioP1;P1;durP2;ratioP2;P2;SDS_P1;SDS_P2;PMS_P1;PMS_P2;Temp;Humidity;BMP_temperature;BMP_pressure;BME280_temperature;BME280_humidity;BME280_pressure;Samples;Min_cycle;Max_cycle;Signal;HPM_P1;HPM_P2
2023/12/02 00:02:12;;;;;;;;;;;;;;;1.14;nan;100925.66;5078735;28;20018;-85
2023/12/02 00:04:38;;;;;;;;;;;;;;;1.12;nan;100926.84;5077970;28;19924;-83
2023/12/02 00:07:03;;;;;;;;;;;;;;;1.07;nan;100913.34;5077385;28;20393;-83
2023/12/02 00:09:28;;;;;;;;;;;;;;;1.03;nan;100923.47;5078649;28;20304;-83
2023/12/02 00:11:53;;;;;;;;;;;;;;;0.99;nan;100918.72;5079178;28;20142;-83
2023/12/02 00:14:19;;;;;;;;;;;;;;;0.94;nan;100914.00;5078180;28;19920;-83
2023/12/02 00:16:44;;;;;;;;;;;;;;;0.90;nan;100912.75;5077249;28;19969;-84
2023/12/02 00:19:09;;;;;;;;;;;;;;;0.86;nan;100912.25;5078414;28;20062;-83
2023/12/02 00:21:35;;;;;;;;;;;;;;;0.81;nan;100917.25;5079509;28;20459;-83
2023/12/02 00:24:01;;;;;;;;;;;;;;;0.76;nan;100911.72;5078608;28;20390;-83
2023/12/02 00:26:26;;;;;;;;;;;;;;;0.73;nan;100925.25;5077406;28;20014;-84
2023/12/02 00:28:52;;;;;;;;;;;;;;;0.69;nan;100910.78;5079057;28;20000;-83
2023/12/02 00:31:17;;;;;;;;;;;;;;;0.66;nan;100895.31;5078497;28;19963;-83
2023/12/02 00:33:42;;;;;;;;;;;;;;;0.63;nan;100906.22;5078808;28;19932;-83
2023/12/02 00:36:08;;;;;;;;;;;;;;;0.59;nan;100899.69;5079383;28;19935;-83
2023/12/02 00:38:33;;;;;;;;;;;;;;;0.54;nan;100904.69;5076966;28;20047;-83
2023/12/02 00:40:59;;;;;;;;;;;;;;;0.50;nan;100906.00;5079369;28;20434;-84
2023/12/02 00:43:24;;;;;;;;;;;;;;;0.47;nan;100903.75;5077468;28;20034;-84
2023/12/02 00:45:49;;;;;;;;;;;;;;;0.45;nan;100909.19;5078368;28;19925;-84
2023/12/02 00:48:14;;;;;;;;;;;;;;;0.40;nan;100905.47;5077288;28;20375;-83
2023/12/02 00:50:40;;;;;;;;;;;;;;;0.37;nan;100885.56;5078128;28;19931;-84
2023/12/02 00:53:05;;;;;;;;;;;;;;;0.33;nan;100894.78;5075374;28;19924;-83
2023/12/02 00:55:30;;;;;;;;;;;;;;;0.30;nan;100905.69;5077746;28;20110;-84
2023/12/02 00:57:56;;;;;;;;;;;;;;;0.26;nan;100894.69;5077861;28;21363;-83
2023/12/02 01:00:22;;;;;;;;;;;;;;;0.21;nan;100888.31;5077857;28;20026;-84
2023/12/02 01:02:48;;;;;;;;;;;;;;;0.14;nan;100888.19;5077287;28;20496;-84
2023/12/02 01:05:13;;;;;;;;;;;;;;;0.11;nan;100882.44;5078243;28;19946;-84
2023/12/02 01:07:39;;;;;;;;;;;;;;;0.08;nan;100885.44;5077723;28;19931;-84
2023/12/02 01:10:04;;;;;;;;;;;;;;;0.04;nan;100878.91;5078171;28;19924;-84
2023/12/02 01:12:30;;;;;;;;;;;;;;;-0.01;nan;100882.84;5078105;28;20307;-83
2023/12/02 01:14:55;;;;;;;;;;;;;;;-0.04;nan;100880.56;5078060;28;19924;-84
2023/12/02 01:17:20;;;;;;;;;;;;;;;-0.07;nan;100893.28;5078837;28;19924;-83
2023/12/02 01:19:46;;;;;;;;;;;;;;;-0.13;nan;100892.19;5075811;28;19935;-84
2023/12/02 01:22:12;;;;;;;;;;;;;;;-0.17;nan;100898.78;5078761;28;19924;-84
2023/12/02 01:24:37;;;;;;;;;;;;;;;-0.20;nan;100903.56;5077765;28;19930;-83
2023/12/02 01:27:03;;;;;;;;;;;;;;;-0.24;nan;100897.00;5077472;28;19931;-84
2023/12/02 01:29:28;;;;;;;;;;;;;;;-0.27;nan;100898.19;5077236;28;19931;-83
2023/12/02 01:31:53;;;;;;;;;;;;;;;-0.28;nan;100904.44;5078164;28;19931;-84
2023/12/02 01:34:19;;;;;;;;;;;;;;;-0.29;nan;100905.44;5078539;28;19919;-83
2023/12/02 01:36:44;;;;;;;;;;;;;;;-0.34;nan;100905.97;5078106;28;20023;-84
2023/12/02 01:39:12;;;;;;;;;;;;;;;-0.37;nan;100900.19;5081266;28;20497;-84
2023/12/02 01:41:37;;;;;;;;;;;;;;;-0.40;nan;100904.00;5081082;28;19931;-83
2023/12/02 01:44:02;;;;;;;;;;;;;;;-0.43;nan;100899.09;5082520;28;19924;-83
2023/12/02 01:46:28;;;;;;;;;;;;;;;-0.47;nan;100905.69;5082026;28;19916;-84
2023/12/02 01:48:54;;;;;;;;;;;;;;;-0.52;nan;100918.56;5082044;28;20376;-84
2023/12/02 01:51:19;;;;;;;;;;;;;;;-0.55;nan;100918.88;5081885;28;19930;-83
2023/12/02 01:53:44;;;;;;;;;;;;;;;-0.58;nan;100921.84;5080717;28;19924;-84
2023/12/02 01:56:11;;;;;;;;;;;;;;;-0.61;nan;100925.66;5080588;28;19927;-84
2023/12/02 01:58:36;;;;;;;;;;;;;;;-0.64;nan;100917.28;5081107;28;19923;-84
2023/12/02 02:01:03;;;;;;;;;;;;;;;-0.67;nan;100913.19;5082355;28;19974;-85
2023/12/02 02:03:28;;;;;;;;;;;;;;;-0.74;nan;100904.31;5082865;28;20062;-83
2023/12/02 02:05:53;;;;;;;;;;;;;;;-0.79;nan;100905.81;5081846;28;19924;-84
2023/12/02 02:08:19;;;;;;;;;;;;;;;-0.83;nan;100913.25;5081524;28;20277;-84
2023/12/02 02:10:44;;;;;;;;;;;;;;;-0.85;nan;100912.59;5080485;28;20454;-84
2023/12/02 02:13:09;;;;;;;;;;;;;;;-0.87;nan;100916.38;5080954;28;21304;-83
2023/12/02 02:15:35;;;;;;;;;;;;;;;-0.88;nan;100912.94;5081101;28;19927;-84
2023/12/02 02:18:00;;;;;;;;;;;;;;;-0.89;nan;100913.13;5080641;28;19924;-84
2023/12/02 02:20:25;;;;;;;;;;;;;;;-0.88;nan;100906.88;5082343;28;20505;-83
2023/12/02 02:22:51;;;;;;;;;;;;;;;-0.94;nan;100901.25;5081211;28;19974;-84
2023/12/02 02:25:16;;;;;;;;;;;;;;;-0.96;nan;100892.72;5081146;28;20010;-84
2023/12/02 02:27:41;;;;;;;;;;;;;;;-0.98;nan;100904.41;5082234;28;19930;-84
2023/12/02 02:30:07;;;;;;;;;;;;;;;-1.00;nan;100909.84;5082490;28;19924;-84
2023/12/02 02:32:32;;;;;;;;;;;;;;;-1.02;nan;100908.38;5080270;28;19924;-83
2023/12/02 02:34:58;;;;;;;;;;;;;;;-1.05;nan;100906.91;5080284;28;19923;-84
2023/12/02 02:37:23;;;;;;;;;;;;;;;-1.07;nan;100906.25;5080181;28;19995;-83
2023/12/02 02:39:49;;;;;;;;;;;;;;;-1.08;nan;100898.50;5080960;28;19928;-84
2023/12/02 02:42:14;;;;;;;;;;;;;;;-1.10;nan;100906.56;5082612;28;19927;-84
2023/12/02 02:44:39;;;;;;;;;;;;;;;-1.14;nan;100900.00;5079758;28;19939;-84
2023/12/02 02:47:05;;;;;;;;;;;;;;;-1.12;nan;100898.03;5079688;28;19920;-83
2023/12/02 02:49:30;;;;;;;;;;;;;;;-1.13;nan;100901.66;5080715;28;20010;-84
2023/12/02 02:51:56;;;;;;;;;;;;;;;-1.14;nan;100897.38;5082334;28;19949;-84
2023/12/02 02:54:21;;;;;;;;;;;;;;;-1.15;nan;100898.38;5080284;28;19970;-84
2023/12/02 02:56:46;;;;;;;;;;;;;;;-1.16;nan;100901.16;5080919;28;19924;-84
2023/12/02 02:59:12;;;;;;;;;;;;;;;-1.19;nan;100896.25;5081215;28;20406;-84
2023/12/02 03:01:39;;;;;;;;;;;;;;;-1.23;nan;100903.66;5081687;28;19920;-84
2023/12/02 03:04:04;;;;;;;;;;;;;;;-1.31;nan;100898.41;5080213;28;19962;-84
2023/12/02 03:06:29;;;;;;;;;;;;;;;-1.40;nan;100902.03;5078977;28;19955;-84
2023/12/02 03:08:55;;;;;;;;;;;;;;;-1.45;nan;100899.06;5080882;28;20461;-83
2023/12/02 03:11:20;;;;;;;;;;;;;;;-1.45;nan;100906.94;5081834;28;19920;-84
2023/12/02 03:13:45;;;;;;;;;;;;;;;-1.45;nan;100901.69;5079763;28;19954;-84
2023/12/02 03:16:11;;;;;;;;;;;;;;;-1.46;nan;100900.88;5081683;28;20505;-84
2023/12/02 03:18:36;;;;;;;;;;;;;;;-1.40;nan;100904.66;5079069;28;20045;-84
2023/12/02 03:21:01;;;;;;;;;;;;;;;-1.40;nan;100894.97;5082028;28;19928;-84
2023/12/02 03:23:27;;;;;;;;;;;;;;;-1.39;nan;100893.16;5079887;28;19923;-84
2023/12/02 03:25:52;;;;;;;;;;;;;;;-1.40;nan;100889.72;5080480;28;19924;-84
2023/12/02 03:28:18;;;;;;;;;;;;;;;-1.42;nan;100891.69;5080222;28;19924;-84
2023/12/02 03:30:43;;;;;;;;;;;;;;;-1.45;nan;100883.31;5081925;28;19924;-82
2023/12/02 03:33:08;;;;;;;;;;;;;;;-1.46;nan;100884.28;5062916;28;20385;-83
2023/12/02 03:35:34;;;;;;;;;;;;;;;-1.49;nan;100884.63;5078289;28;19920;-83
2023/12/02 03:37:59;;;;;;;;;;;;;;;-1.53;nan;100887.59;5080389;28;19931;-84
2023/12/02 03:40:24;;;;;;;;;;;;;;;-1.54;nan;100888.56;5079054;28;19924;-84
2023/12/02 03:42:50;;;;;;;;;;;;;;;-1.54;nan;100893.00;5079659;28;19984;-84
2023/12/02 03:45:15;;;;;;;;;;;;;;;-1.54;nan;100904.34;5080324;28;19948;-84
2023/12/02 03:47:41;;;;;;;;;;;;;;;-1.55;nan;100907.97;5062604;28;19916;-84
2023/12/02 03:50:06;;;;;;;;;;;;;;;-1.56;nan;100906.31;5080160;28;19924;-84
2023/12/02 03:52:31;;;;;;;;;;;;;;;-1.57;nan;100920.44;5080584;28;20003;-85
2023/12/02 03:54:57;;;;;;;;;;;;;;;-1.61;nan;100908.63;5078983;28;19920;-84
2023/12/02 03:57:22;;;;;;;;;;;;;;;-1.66;nan;100913.53;5079558;28;19927;-84
2023/12/02 03:59:47;;;;;;;;;;;;;;;-1.69;nan;100911.25;5078479;28;20320;-83
2023/12/02 04:02:13;;;;;;;;;;;;;;;-1.71;nan;100907.97;5078690;28;20021;-84
2023/12/02 04:04:38;;;;;;;;;;;;;;;-1.74;nan;100913.53;5079493;28;20013;-84
2023/12/02 04:07:04;;;;;;;;;;;;;;;-1.76;nan;100915.53;5079638;28;19963;-84
2023/12/02 04:09:30;;;;;;;;;;;;;;;-1.77;nan;100918.31;5079596;28;19920;-84
2023/12/02 04:11:55;;;;;;;;;;;;;;;-1.80;nan;100927.31;5081106;28;19985;-84
2023/12/02 04:14:20;;;;;;;;;;;;;;;-1.80;nan;100919.44;5079147;28;19965;-84
2023/12/02 04:16:46;;;;;;;;;;;;;;;-1.82;nan;100913.53;5079348;28;19924;-87
2023/12/02 04:19:11;;;;;;;;;;;;;;;-1.82;nan;100916.97;5078669;28;19924;-86
2023/12/02 04:21:40;;;;;;;;;;;;;;;-1.83;nan;100917.13;5079344;28;20419;-84
2023/12/02 04:24:06;;;;;;;;;;;;;;;-1.82;nan;100916.16;5078626;28;19982;-84
2023/12/02 04:26:31;;;;;;;;;;;;;;;-1.81;nan;100912.53;5078361;28;20876;-84
2023/12/02 04:28:56;;;;;;;;;;;;;;;-1.83;nan;100909.25;5075255;28;19970;-84
2023/12/02 04:31:22;;;;;;;;;;;;;;;-1.82;nan;100918.78;5079779;28;19950;-84
2023/12/02 04:33:47;;;;;;;;;;;;;;;-1.82;nan;100916.16;5079224;28;19931;-84
2023/12/02 04:36:14;;;;;;;;;;;;;;;-1.83;nan;100914.50;5079070;28;19924;-84
2023/12/02 04:38:39;;;;;;;;;;;;;;;-1.84;nan;100912.88;5078457;28;19955;-83
2023/12/02 04:41:05;;;;;;;;;;;;;;;-1.85;nan;100909.44;5079370;28;20661;-84
2023/12/02 04:43:30;;;;;;;;;;;;;;;-1.88;nan;100906.31;5078776;28;19931;-84
2023/12/02 04:45:56;;;;;;;;;;;;;;;-1.95;nan;100893.03;5078982;28;19970;-83
2023/12/02 04:48:21;;;;;;;;;;;;;;;-1.94;nan;100896.47;5078435;28;19986;-84
2023/12/02 04:50:47;;;;;;;;;;;;;;;-1.93;nan;100900.72;5079641;28;19924;-84
2023/12/02 04:53:12;;;;;;;;;;;;;;;-1.92;nan;100899.75;5079281;28;20979;-83
2023/12/02 04:55:37;;;;;;;;;;;;;;;-1.90;nan;100897.78;5075522;28;19920;-84
2023/12/02 04:58:03;;;;;;;;;;;;;;;-1.90;nan;100898.59;5077878;28;19924;-84
2023/12/02 05:00:28;;;;;;;;;;;;;;;-1.87;nan;100897.44;5078399;28;19927;-84
2023/12/02 05:02:54;;;;;;;;;;;;;;;-1.85;nan;100900.72;5078593;28;19977;-84
2023/12/02 05:05:20;;;;;;;;;;;;;;;-1.80;nan;100908.09;5079863;28;20487;-84
2023/12/02 05:07:45;;;;;;;;;;;;;;;-1.78;nan;100909.63;5078583;28;19932;-84
2023/12/02 05:10:10;;;;;;;;;;;;;;;-1.74;nan;100907.47;5077730;28;20010;-84
2023/12/02 05:12:36;;;;;;;;;;;;;;;-1.73;nan;100909.94;5077528;28;20481;-84
2023/12/02 05:15:02;;;;;;;;;;;;;;;-1.71;nan;100913.22;5080835;28;19924;-83
2023/12/02 05:17:28;;;;;;;;;;;;;;;-1.71;nan;100910.59;5077994;28;19931;-84
2023/12/02 05:19:53;;;;;;;;;;;;;;;-1.70;nan;100919.28;5078844;28;19928;-84
2023/12/02 05:22:18;;;;;;;;;;;;;;;-1.71;nan;100921.09;5078830;28;21125;-84
2023/12/02 05:24:44;;;;;;;;;;;;;;;-1.69;nan;100926.19;5079261;28;20391;-84
2023/12/02 05:27:09;;;;;;;;;;;;;;;-1.69;nan;100921.75;5077506;28;21650;-84
2023/12/02 05:29:34;;;;;;;;;;;;;;;-1.69;nan;100921.75;5076987;28;19924;-83
2023/12/02 05:32:00;;;;;;;;;;;;;;;-1.67;nan;100935.53;5077649;28;19982;-83
2023/12/02 05:34:25;;;;;;;;;;;;;;;-1.66;nan;100936.34;5076184;28;19967;-83
2023/12/02 05:36:51;;;;;;;;;;;;;;;-1.65;nan;100925.69;5076404;28;19924;-84
2023/12/02 05:39:16;;;;;;;;;;;;;;;-1.66;nan;100921.41;5078357;28;20450;-84
2023/12/02 05:41:42;;;;;;;;;;;;;;;-1.65;nan;100935.38;5077218;28;20006;-83
2023/12/02 05:44:08;;;;;;;;;;;;;;;-1.66;nan;100937.19;5078600;28;19921;-84
2023/12/02 05:46:33;;;;;;;;;;;;;;;-1.66;nan;100952.94;5076835;28;19920;-83
2023/12/02 05:48:58;;;;;;;;;;;;;;;-1.67;nan;100946.03;5078987;28;19931;-84
2023/12/02 05:51:24;;;;;;;;;;;;;;;-1.69;nan;100941.94;5077056;28;19978;-84
2023/12/02 05:53:49;;;;;;;;;;;;;;;-1.73;nan;100946.72;5078959;28;19924;-84
2023/12/02 05:56:17;;;;;;;;;;;;;;;-1.74;nan;100957.38;5078153;28;19938;-84
2023/12/02 05:58:42;;;;;;;;;;;;;;;-1.76;nan;100959.34;5077146;28;20398;-84
2023/12/02 06:01:08;;;;;;;;;;;;;;;-1.80;nan;100958.00;5079435;28;19920;-84
2023/12/02 06:03:33;;;;;;;;;;;;;;;-1.82;nan;100952.94;5078039;28;19924;-84
2023/12/02 06:05:58;;;;;;;;;;;;;;;-1.82;nan;100959.00;5078249;28;20018;-84
2023/12/02 06:08:24;;;;;;;;;;;;;;;-1.85;nan;100954.06;5059173;28;19963;-84
2023/12/02 06:10:49;;;;;;;;;;;;;;;-1.87;nan;100963.09;5077823;28;20015;-84
2023/12/02 06:13:14;;;;;;;;;;;;;;;-1.89;nan;100965.88;5078382;28;19931;-84
2023/12/02 06:15:39;;;;;;;;;;;;;;;-1.91;nan;100969.66;5077545;28;20001;-84
2023/12/02 06:18:05;;;;;;;;;;;;;;;-1.94;nan;100968.19;5076491;28;19923;-84
2023/12/02 06:20:30;;;;;;;;;;;;;;;-1.97;nan;100976.41;5078989;28;19935;-84
2023/12/02 06:22:55;;;;;;;;;;;;;;;-1.99;nan;100977.50;5078163;28;19955;-84
2023/12/02 06:25:21;;;;;;;;;;;;;;;-2.03;nan;100986.69;5080124;28;19955;-84
2023/12/02 06:27:46;;;;;;;;;;;;;;;-2.08;nan;100981.13;5080858;28;19969;-84
2023/12/02 06:30:15;;;;;;;;;;;;;;;-2.10;nan;100983.09;5082613;28;20105;-84
2023/12/02 06:32:41;;;;;;;;;;;;;;;-2.13;nan;100989.47;5079557;28;19924;-84
2023/12/02 06:35:06;;;;;;;;;;;;;;;-2.15;nan;100994.88;5082555;28;19991;-84
2023/12/02 06:37:31;;;;;;;;;;;;;;;-2.17;nan;100996.81;5078975;28;20410;-84
2023/12/02 06:39:57;;;;;;;;;;;;;;;-2.20;nan;100991.91;5081706;28;20413;-84
2023/12/02 06:42:22;;;;;;;;;;;;;;;-2.23;nan;100991.41;5081878;28;19924;-84
2023/12/02 06:44:47;;;;;;;;;;;;;;;-2.26;nan;100989.91;5080137;28;19924;-84
2023/12/02 06:47:13;;;;;;;;;;;;;;;-2.27;nan;100983.03;5080582;28;20473;-84
2023/12/02 06:49:38;;;;;;;;;;;;;;;-2.29;nan;100978.91;5080972;28;19931;-84
2023/12/02 06:52:04;;;;;;;;;;;;;;;-2.34;nan;100979.38;5082532;28;19924;-84
2023/12/02 06:54:29;;;;;;;;;;;;;;;-2.34;nan;100994.28;5082058;28;19980;-83
2023/12/02 06:56:54;;;;;;;;;;;;;;;-2.35;nan;100998.72;5080453;28;19947;-84
2023/12/02 06:59:19;;;;;;;;;;;;;;;-2.37;nan;100998.06;5081729;28;19924;-84
2023/12/02 07:01:45;;;;;;;;;;;;;;;-2.38;nan;101001.66;5081600;28;20875;-84
2023/12/02 07:04:10;;;;;;;;;;;;;;;-2.37;nan;100998.06;5081164;28;20431;-84
2023/12/02 07:06:36;;;;;;;;;;;;;;;-2.35;nan;100988.22;5081049;28;20010;-85
2023/12/02 07:09:01;;;;;;;;;;;;;;;-2.33;nan;100985.47;5081864;28;20299;-84
2023/12/02 07:11:27;;;;;;;;;;;;;;;-2.34;nan;100982.00;5080940;28;19985;-84
2023/12/02 07:13:52;;;;;;;;;;;;;;;-2.34;nan;100979.38;5079475;28;19924;-84
2023/12/02 07:16:18;;;;;;;;;;;;;;;-2.34;nan;100989.03;5078583;28;19928;-84
2023/12/02 07:18:43;;;;;;;;;;;;;;;-2.36;nan;100986.59;5081037;28;19916;-84
2023/12/02 07:21:09;;;;;;;;;;;;;;;-2.40;nan;100966.91;5081853;28;19931;-84
2023/12/02 07:23:34;;;;;;;;;;;;;;;-2.44;nan;100968.19;5079884;28;19947;-84
2023/12/02 07:26:00;;;;;;;;;;;;;;;-2.47;nan;100971.13;5082616;28;19931;-84
2023/12/02 07:28:25;;;;;;;;;;;;;;;-2.48;nan;100977.38;5077847;28;20421;-85
2023/12/02 07:30:51;;;;;;;;;;;;;;;-2.49;nan;100991.47;5080107;28;19931;-84
2023/12/02 07:33:18;;;;;;;;;;;;;;;-2.49;nan;100996.72;5080067;28;19978;-88
2023/12/02 07:35:43;;;;;;;;;;;;;;;-2.51;nan;100982.94;5081314;28;20403;-84
2023/12/02 07:38:09;;;;;;;;;;;;;;;-2.52;nan;100983.88;5080938;28;20412;-84
2023/12/02 07:40:35;;;;;;;;;;;;;;;-2.51;nan;101001.31;5081050;28;21262;-84
2023/12/02 07:43:00;;;;;;;;;;;;;;;-2.54;nan;100999.78;5080088;28;19926;-84
2023/12/02 07:45:26;;;;;;;;;;;;;;;-2.56;nan;101014.03;5081781;28;19920;-84
2023/12/02 07:47:51;;;;;;;;;;;;;;;-2.57;nan;101021.09;5067162;28;19983;-83
2023/12/02 07:50:16;;;;;;;;;;;;;;;-2.56;nan;101011.41;5084672;28;20307;-83
2023/12/02 07:52:42;;;;;;;;;;;;;;;-2.55;nan;101010.44;5086347;28;20398;-83
2023/12/02 07:55:07;;;;;;;;;;;;;;;-2.54;nan;101015.53;5083207;28;19928;-83
2023/12/02 07:57:33;;;;;;;;;;;;;;;-2.53;nan;101022.41;5085876;28;19920;-83
2023/12/02 07:59:58;;;;;;;;;;;;;;;-2.49;nan;101017.72;5083970;28;19923;-83
2023/12/02 08:02:24;;;;;;;;;;;;;;;-2.45;nan;101021.66;5087793;28;19923;-83
2023/12/02 08:04:49;;;;;;;;;;;;;;;-2.40;nan;101032.50;5087252;28;19990;-83
2023/12/02 08:07:14;;;;;;;;;;;;;;;-2.31;nan;101025.50;5083334;28;20293;-83
2023/12/02 08:09:40;;;;;;;;;;;;;;;-2.20;nan;101017.31;5084783;28;19919;-83
2023/12/02 08:12:05;;;;;;;;;;;;;;;-2.10;nan;101033.78;5085544;28;19955;-83
2023/12/02 08:14:31;;;;;;;;;;;;;;;-2.00;nan;101038.88;5090608;28;20054;-83
2023/12/02 08:16:56;;;;;;;;;;;;;;;-1.93;nan;101037.28;5090139;28;19991;-83
2023/12/02 08:19:21;;;;;;;;;;;;;;;-1.86;nan;101030.41;5085998;28;20609;-83
2023/12/02 08:21:46;;;;;;;;;;;;;;;-1.79;nan;101020.09;5079789;28;19983;-83
2023/12/02 08:24:12;;;;;;;;;;;;;;;-1.73;nan;101029.94;5087948;28;20008;-83
2023/12/02 08:26:37;;;;;;;;;;;;;;;-1.67;nan;101032.75;5088859;28;20053;-83
2023/12/02 08:29:02;;;;;;;;;;;;;;;-1.63;nan;101026.19;5082493;28;19950;-83
2023/12/02 08:31:28;;;;;;;;;;;;;;;-1.56;nan;101021.94;5079031;28;20694;-83
2023/12/02 08:33:56;;;;;;;;;;;;;;;-1.48;nan;101036.06;5084318;28;20280;-83
2023/12/02 08:36:21;;;;;;;;;;;;;;;-1.45;nan;101043.59;5084149;28;19938;-83
2023/12/02 08:38:47;;;;;;;;;;;;;;;-1.39;nan;101049.06;5083040;28;21096;-83
2023/12/02 08:41:12;;;;;;;;;;;;;;;-1.32;nan;101049.22;5085677;28;19954;-82
2023/12/02 08:43:37;;;;;;;;;;;;;;;-1.27;nan;101049.53;5086734;28;20831;-83
2023/12/02 08:46:03;;;;;;;;;;;;;;;-1.20;nan;101058.44;5090153;28;20368;-83
2023/12/02 08:48:28;;;;;;;;;;;;;;;-1.13;nan;101042.81;5087148;28;19920;-82
2023/12/02 08:50:53;;;;;;;;;;;;;;;-1.10;nan;101045.94;5087749;28;19924;-83
2023/12/02 08:53:19;;;;;;;;;;;;;;;-1.08;nan;101043.97;5086477;28;19920;-83
2023/12/02 08:55:44;;;;;;;;;;;;;;;-1.07;nan;101050.06;5092446;28;19930;-83
2023/12/02 08:58:09;;;;;;;;;;;;;;;-1.07;nan;101052.69;5090176;28;19927;-83
2023/12/02 09:00:35;;;;;;;;;;;;;;;-1.06;nan;101049.09;5087442;28;19928;-83
2023/12/02 09:03:00;;;;;;;;;;;;;;;-1.04;nan;101047.09;5077559;28;19920;-83
2023/12/02 09:05:25;;;;;;;;;;;;;;;-1.01;nan;101058.09;5079799;28;19924;-83
2023/12/02 09:07:51;;;;;;;;;;;;;;;-1.01;nan;101063.38;5077978;28;19920;-82
2023/12/02 09:10:16;;;;;;;;;;;;;;;-1.04;nan;101055.00;5080062;28;19921;-82
2023/12/02 09:12:42;;;;;;;;;;;;;;;-1.06;nan;101068.31;5073108;28;19920;-83
2023/12/02 09:15:30;;;;;;;;;;;;;;;-1.04;nan;101073.41;5082226;28;20288;-82
2023/12/02 09:18:05;;;;;;;;;;;;;;;-1.00;nan;101072.91;5070239;28;19923;-83
2023/12/02 09:20:45;;;;;;;;;;;;;;;-0.96;nan;101082.09;5083484;28;19928;-83
2023/12/02 09:23:12;;;;;;;;;;;;;;;-0.90;nan;101077.97;5081334;28;19920;-83
2023/12/02 09:25:41;;;;;;;;;;;;;;;-0.86;nan;101081.13;5084702;28;19924;-83
2023/12/02 09:28:06;;;;;;;;;;;;;;;-0.80;nan;101097.06;5092311;28;20008;-83
2023/12/02 09:30:42;;;;;;;;;;;;;;;-0.70;nan;101102.16;5084978;28;20045;-82
2023/12/02 09:33:07;;;;;;;;;;;;;;;-0.63;nan;101103.13;5076351;28;19919;-82
2023/12/02 09:35:33;;;;;;;;;;;;;;;-0.54;nan;101107.38;5085003;28;19927;-83
2023/12/02 09:38:00;;;;;;;;;;;;;;;-0.45;nan;101097.69;5079040;28;20499;-83
2023/12/02 09:40:25;;;;;;;;;;;;;;;-0.41;nan;101099.81;5078860;28;19928;-83
2023/12/02 09:42:55;;;;;;;;;;;;;;;-0.41;nan;101102.44;5086313;28;19924;-83
2023/12/02 09:45:31;;;;;;;;;;;;;;;-0.40;nan;101103.25;5077745;28;19921;-82
2023/12/02 09:48:13;;;;;;;;;;;;;;;-0.41;nan;101102.44;5080480;28;19919;-83
2023/12/02 09:51:04;;;;;;;;;;;;;;;-0.40;nan;101101.44;5084276;28;19920;-82
2023/12/02 09:53:33;;;;;;;;;;;;;;;-0.38;nan;101104.72;5060302;28;19920;-82
2023/12/02 09:56:01;;;;;;;;;;;;;;;-0.35;nan;101106.22;5087270;28;19916;-83
2023/12/02 09:58:32;;;;;;;;;;;;;;;-0.33;nan;101109.50;5071088;28;19924;-82
2023/12/02 10:01:16;;;;;;;;;;;;;;;-0.33;nan;101102.44;5088270;28;20268;-83
2023/12/02 10:03:53;;;;;;;;;;;;;;;-0.34;nan;101094.72;5087493;28;20672;-83
2023/12/02 10:06:18;;;;;;;;;;;;;;;-0.31;nan;101100.44;5089846;28;19920;-83
2023/12/02 10:08:52;;;;;;;;;;;;;;;-0.27;nan;101103.56;5085249;28;20769;-83
2023/12/02 10:11:26;;;;;;;;;;;;;;;-0.23;nan;101096.13;5078215;28;19920;-83
2023/12/02 10:13:51;;;;;;;;;;;;;;;-0.22;nan;101085.44;5087173;28;19931;-82
2023/12/02 10:16:20;;;;;;;;;;;;;;;-0.23;nan;101080.34;5083875;28;19916;-82
2023/12/02 10:18:52;;;;;;;;;;;;;;;-0.21;nan;101094.97;5089451;28;20312;-83
2023/12/02 10:21:19;;;;;;;;;;;;;;;-0.17;nan;101091.03;5087571;28;19927;-83
2023/12/02 10:23:50;;;;;;;;;;;;;;;-0.13;nan;101078.34;5080708;28;19920;-82
2023/12/02 10:26:20;;;;;;;;;;;;;;;-0.07;nan;101086.38;5087632;28;19928;-83
2023/12/02 10:29:00;;;;;;;;;;;;;;;0.00;nan;101086.53;5088462;28;19985;-82
2023/12/02 10:31:27;;;;;;;;;;;;;;;0.06;nan;101082.38;5080697;28;19928;-83
2023/12/02 10:34:11;;;;;;;;;;;;;;;0.14;nan;101083.16;5086020;28;19924;-82
2023/12/02 10:36:37;;;;;;;;;;;;;;;0.21;nan;101086.78;5084698;28;19920;-83
2023/12/02 10:39:09;;;;;;;;;;;;;;;0.28;nan;101071.06;5081670;28;19920;-81
2023/12/02 10:41:47;;;;;;;;;;;;;;;0.35;nan;101069.38;5083783;28;20033;-82
2023/12/02 10:44:14;;;;;;;;;;;;;;;0.39;nan;101062.78;5082753;28;19924;-82
2023/12/02 10:46:42;;;;;;;;;;;;;;;0.39;nan;101056.69;5080053;28;19923;-83
2023/12/02 10:49:10;;;;;;;;;;;;;;;0.40;nan;101053.06;5081853;28;20283;-82
2023/12/02 10:51:39;;;;;;;;;;;;;;;0.36;nan;101051.75;5088166;28;20009;-82
2023/12/02 10:54:05;;;;;;;;;;;;;;;0.37;nan;101058.69;5065491;28;20391;-83
2023/12/02 10:56:33;;;;;;;;;;;;;;;0.42;nan;101051.91;5088366;28;19973;-82
2023/12/02 10:58:59;;;;;;;;;;;;;;;0.48;nan;101048.56;5081691;28;19920;-82
2023/12/02 11:01:24;;;;;;;;;;;;;;;0.53;nan;101045.38;5085877;28;19923;-83
2023/12/02 11:03:51;;;;;;;;;;;;;;;0.56;nan;101051.16;5082116;28;19920;-82
2023/12/02 11:06:27;;;;;;;;;;;;;;;0.60;nan;101052.44;5082205;28;19926;-82
2023/12/02 11:09:11;;;;;;;;;;;;;;;0.66;nan;101052.72;5082558;28;19924;-82
2023/12/02 11:11:51;;;;;;;;;;;;;;;0.67;nan;101057.00;5080544;28;19938;-83
2023/12/02 11:14:17;;;;;;;;;;;;;;;0.70;nan;101043.44;5079696;28;19920;-83
2023/12/02 11:17:01;;;;;;;;;;;;;;;0.71;nan;101050.38;5066474;28;20383;-83
2023/12/02 11:19:56;;;;;;;;;;;;;;;0.67;nan;101055.19;5056179;28;20012;-83
2023/12/02 11:22:39;;;;;;;;;;;;;;;0.68;nan;101050.72;5071344;28;19951;-82
2023/12/02 11:25:13;;;;;;;;;;;;;;;0.71;nan;101051.19;5084705;28;19916;-82
2023/12/02 11:27:42;;;;;;;;;;;;;;;0.73;nan;101059.78;5085749;28;19924;-83
2023/12/02 11:30:26;;;;;;;;;;;;;;;0.72;nan;101060.78;5086527;28;19928;-83
2023/12/02 11:33:19;;;;;;;;;;;;;;;0.75;nan;101063.06;5085481;28;19920;-82
2023/12/02 11:35:47;;;;;;;;;;;;;;;0.84;nan;101071.72;5089642;28;20324;-83
2023/12/02 11:38:19;;;;;;;;;;;;;;;0.90;nan;101066.56;5080220;28;19927;-83
2023/12/02 11:40:50;;;;;;;;;;;;;;;0.98;nan;101070.94;5082934;28;19935;-83
2023/12/02 11:43:19;;;;;;;;;;;;;;;1.05;nan;101069.22;5090754;28;20037;-82
2023/12/02 11:45:49;;;;;;;;;;;;;;;1.13;nan;101058.63;5089117;28;19924;-82
2023/12/02 11:48:18;;;;;;;;;;;;;;;1.21;nan;101073.53;5087570;28;19963;-83
2023/12/02 11:50:43;;;;;;;;;;;;;;;1.26;nan;101071.22;5088818;28;19919;-82
2023/12/02 11:53:08;;;;;;;;;;;;;;;1.32;nan;101065.19;5082634;28;19920;-83
2023/12/02 11:55:34;;;;;;;;;;;;;;;1.35;nan;101067.47;5087391;28;19943;-82
2023/12/02 11:57:59;;;;;;;;;;;;;;;1.38;nan;101063.66;5085630;28;20643;-82
2023/12/02 12:00:37;;;;;;;;;;;;;;;1.40;nan;101062.47;5072737;28;20210;-82
2023/12/02 12:03:17;;;;;;;;;;;;;;;1.40;nan;101059.81;5090203;28;19967;-82
2023/12/02 12:06:02;;;;;;;;;;;;;;;1.44;nan;101050.56;5087896;28;19924;-81
2023/12/02 12:08:34;;;;;;;;;;;;;;;1.45;nan;101041.66;5089741;28;19920;-82
2023/12/02 12:11:01;;;;;;;;;;;;;;;1.46;nan;101038.00;5092464;28;19924;-82
2023/12/02 12:13:29;;;;;;;;;;;;;;;1.51;nan;101048.00;5091948;28;19916;-83
2023/12/02 12:15:54;;;;;;;;;;;;;;;1.55;nan;101053.75;5083949;28;19932;-83
2023/12/02 12:18:20;;;;;;;;;;;;;;;1.60;nan;101054.00;5082706;28;19965;-83
2023/12/02 12:20:47;;;;;;;;;;;;;;;1.64;nan;101053.50;5086470;28;19928;-83
2023/12/02 12:23:13;;;;;;;;;;;;;;;1.69;nan;101043.19;5087340;28;20004;-83
2023/12/02 12:25:38;;;;;;;;;;;;;;;1.73;nan;101046.28;5082204;28;20018;-82
2023/12/02 12:28:04;;;;;;;;;;;;;;;1.78;nan;101043.91;5065277;28;19927;-83
2023/12/02 12:30:43;;;;;;;;;;;;;;;1.85;nan;101034.25;5065200;28;19958;-83
2023/12/02 12:33:10;;;;;;;;;;;;;;;1.86;nan;101041.19;5071630;28;19967;-83
2023/12/02 12:35:35;;;;;;;;;;;;;;;1.91;nan;101051.19;5084077;28;19923;-83
2023/12/02 12:38:01;;;;;;;;;;;;;;;1.91;nan;101044.09;5092885;28;19923;-83
2023/12/02 12:40:29;;;;;;;;;;;;;;;1.91;nan;101044.09;5083242;28;20007;-83
2023/12/02 12:42:55;;;;;;;;;;;;;;;1.90;nan;101045.09;5084627;28;19927;-82
2023/12/02 12:45:21;;;;;;;;;;;;;;;1.94;nan;101043.72;5085110;28;19916;-83
2023/12/02 12:47:46;;;;;;;;;;;;;;;1.98;nan;101039.72;5085604;28;20422;-82
2023/12/02 12:50:14;;;;;;;;;;;;;;;1.95;nan;101037.41;5085932;28;19955;-83
2023/12/02 12:52:41;;;;;;;;;;;;;;;1.90;nan;101039.81;5085605;28;20603;-82
2023/12/02 12:55:08;;;;;;;;;;;;;;;1.88;nan;101041.00;5086293;28;19920;-82
2023/12/02 12:57:52;;;;;;;;;;;;;;;1.87;nan;101044.66;5061446;28;19941;-83
2023/12/02 13:00:17;;;;;;;;;;;;;;;1.85;nan;101050.13;5081306;28;19959;-82